Time;durP1;ratioP1;P1;durP2;ratioP2;P2;SDS_P1;SDS_P2;PMS_P1;PMS_P2;Temp;Humidity;BMP_temperature;BMP_pressure;BME280_temperature;BME280_humidity;BME280_pressure;Samples;Min_cycle;Max_cycle;Signal;HPM_P1;HPM_P2
2023/04/19 00:00:11;;;;;;;;;;;6.50;58.20;;;;;;4003652;29;20015;-87
2023/04/19 00:02:19;;;;;;;;;;;6.60;58.30;;;;;;4019296;29;19918;-86
2023/04/19 00:04:36;;;;;;;;;;;;;;;;;;;;;
2023/04/19 00:06:50;;;;;;;;;;;6.50;58.80;;;;;;4026646;29;19908;-85
2023/04/19 00:09:16;;;;;;;;;;;6.40;58.50;;;;;;4046440;29;19907;-87
2023/04/19 00:11:54;;;;;;;;;;;6.40;58.20;;;;;;4080488;29;19946;-85
2023/04/19 00:14:23;;;;;;;;;;;6.50;58.10;;;;;;4063586;29;19911;-86
2023/04/19 00:16:44;;;;;;;;;;;6.50;58.20;;;;;;4075439;29;19911;-85
2023/04/19 00:19:07;;;;;;;;;;;6.50;58.30;;;;;;4066597;29;19997;-87
2023/04/19 00:21:36;;;;;;;;;;;6.40;58.10;;;;;;4094700;28;19945;-85
2023/04/19 00:24:09;;;;;;;;;;;6.40;58.20;;;;;;4072454;29;19911;-85
2023/04/19 00:26:17;;;;;;;;;;;6.40;58.30;;;;;;4070249;29;19935;-86
2023/04/19 00:28:42;;;;;;;;;;;6.30;58.30;;;;;;4089917;29;20458;-85
2023/04/19 00:31:33;;;;;;;;;;;6.30;58.00;;;;;;4097743;29;19908;-86
2023/04/19 00:33:59;;;;;;;;;;;6.30;57.90;;;;;;4076720;29;19921;-86
2023/04/19 00:36:30;;;;;;;;;;;6.30;58.40;;;;;;4076945;29;19914;-85
2023/04/19 00:39:06;;;;;;;;;;;6.20;58.30;;;;;;4013118;29;19983;-86
2023/04/19 00:41:32;;;;;;;;;;;6.30;58.20;;;;;;4051185;29;19907;-85
2023/04/19 00:47:20;;;;;;;;;;;6.20;58.00;;;;;;4012386;29;19914;-86
2023/04/19 00:49:56;;;;;;;;;;;6.20;57.80;;;;;;4018911;29;20053;-85
2023/04/19 00:52:36;;;;;;;;;;;6.10;58.30;;;;;;4030640;29;19907;-85
2023/04/19 00:55:00;;;;;;;;;;;6.10;58.20;;;;;;4111326;28;19919;-87
2023/04/19 00:57:27;;;;;;;;;;;6.20;58.00;;;;;;4098629;28;19914;-87
2023/04/19 01:00:13;;;;;;;;;;;6.10;57.80;;;;;;4079498;29;19918;-86
2023/04/19 01:02:41;;;;;;;;;;;6.10;58.00;;;;;;4093747;28;19941;-85
2023/04/19 01:05:09;;;;;;;;;;;6.10;58.80;;;;;;4092187;28;19962;-87
2023/04/19 01:07:53;;;;;;;;;;;6.00;60.00;;;;;;4092343;29;19913;-85
2023/04/19 01:10:26;;;;;;;;;;;6.00;60.60;;;;;;4094351;28;20345;-85
2023/04/19 01:12:38;;;;;;;;;;;5.90;60.40;;;;;;4097363;28;19915;-85
2023/04/19 01:14:53;;;;;;;;;;;6.00;61.10;;;;;;4081133;29;20377;-86
2023/04/19 01:17:43;;;;;;;;;;;;;;;;;;;;;
2023/04/19 01:20:12;;;;;;;;;;;5.90;61.60;;;;;;4101736;29;19922;-85
2023/04/19 01:22:28;;;;;;;;;;;6.00;61.90;;;;;;4093462;28;19939;-86
2023/04/19 01:27:29;;;;;;;;;;;5.90;62.10;;;;;;4052654;29;19992;-86
2023/04/19 01:29:40;;;;;;;;;;;5.90;62.90;;;;;;4040427;29;19919;-85
2023/04/19 01:31:58;;;;;;;;;;;5.90;63.30;;;;;;4049759;29;19911;-85
2023/04/19 01:33:59;;;;;;;;;;;5.90;63.40;;;;;;4050978;29;19903;-86
2023/04/19 01:38:39;;;;;;;;;;;5.80;64.20;;;;;;4055555;29;19934;-86
2023/04/19 01:40:56;;;;;;;;;;;5.80;64.30;;;;;;4052632;29;19914;-87
2023/04/19 01:43:36;;;;;;;;;;;5.80;64.50;;;;;;4065450;29;19907;-85
2023/04/19 01:45:55;;;;;;;;;;;5.80;64.60;;;;;;4031104;29;20247;-85
2023/04/19 01:48:06;;;;;;;;;;;5.80;64.70;;;;;;4057638;29;19903;-85
2023/04/19 01:50:36;;;;;;;;;;;5.70;65.20;;;;;;4056497;29;19962;-85
2023/04/19 01:53:12;;;;;;;;;;;5.80;65.90;;;;;;4055724;29;19927;-85
2023/04/19 01:55:33;;;;;;;;;;;5.80;66.20;;;;;;4059027;29;20002;-86
2023/04/19 01:58:01;;;;;;;;;;;;;;;;;;;;;
2023/04/19 02:00:48;;;;;;;;;;;5.80;66.00;;;;;;4053202;29;19938;-86
2023/04/19 02:02:59;;;;;;;;;;;5.80;66.20;;;;;;4055681;29;19915;-85
2023/04/19 02:05:41;;;;;;;;;;;5.90;66.30;;;;;;4088219;29;19914;-85
2023/04/19 02:08:24;;;;;;;;;;;5.80;66.00;;;;;;4094990;28;19906;-85
2023/04/19 02:10:52;;;;;;;;;;;5.80;65.90;;;;;;4086595;28;19911;-86
2023/04/19 02:13:21;;;;;;;;;;;5.80;65.70;;;;;;4067284;29;20366;-85
2023/04/19 02:15:49;;;;;;;;;;;5.80;64.80;;;;;;4080790;29;20205;-87
2023/04/19 02:21:07;;;;;;;;;;;5.80;64.60;;;;;;4098113;28;20617;-85
2023/04/19 02:23:17;;;;;;;;;;;5.80;64.80;;;;;;4098877;29;19906;-86
2023/04/19 02:25:38;;;;;;;;;;;5.80;64.60;;;;;;4088852;29;19926;-85
2023/04/19 02:28:02;;;;;;;;;;;5.70;64.20;;;;;;4098850;28;19921;-85
2023/04/19 02:30:25;;;;;;;;;;;5.80;64.00;;;;;;4055037;29;19904;-87
2023/04/19 02:33:04;;;;;;;;;;;5.90;63.80;;;;;;4055237;29;19911;-85
2023/04/19 02:35:16;;;;;;;;;;;5.70;63.60;;;;;;4035459;29;19915;-85
2023/04/19 02:38:26;;;;;;;;;;;5.80;63.50;;;;;;4056409;29;19918;-86
2023/04/19 02:40:55;;;;;;;;;;;5.70;63.50;;;;;;4065326;29;19907;-85
2023/04/19 02:43:25;;;;;;;;;;;5.70;63.40;;;;;;4065764;29;20009;-85
2023/04/19 02:45:54;;;;;;;;;;;5.60;63.40;;;;;;4057771;29;19915;-85
2023/04/19 02:48:47;;;;;;;;;;;5.60;63.30;;;;;;4068504;29;19910;-85
2023/04/19 02:51:37;;;;;;;;;;;5.60;63.00;;;;;;4034058;29;19916;-85
2023/04/19 02:54:04;;;;;;;;;;;5.60;62.80;;;;;;4025813;29;19923;-86
2023/04/19 02:56:40;;;;;;;;;;;5.50;62.80;;;;;;4031283;29;20068;-86
2023/04/19 02:59:33;;;;;;;;;;;5.50;63.00;;;;;;4013259;29;20222;-85
2023/04/19 03:02:04;;;;;;;;;;;5.40;63.00;;;;;;4012134;29;19973;-86
2023/04/19 03:04:33;;;;;;;;;;;5.40;63.00;;;;;;4017794;29;19917;-85
2023/04/19 03:06:59;;;;;;;;;;;5.40;62.90;;;;;;4022004;29;19922;-85
2023/04/19 03:09:47;;;;;;;;;;;5.40;63.00;;;;;;4022540;29;19916;-85
2023/04/19 03:12:14;;;;;;;;;;;5.40;62.90;;;;;;4018308;29;20068;-85
2023/04/19 03:14:48;;;;;;;;;;;5.40;63.10;;;;;;4021333;29;20340;-85
2023/04/19 03:17:17;;;;;;;;;;;5.40;63.40;;;;;;4011589;29;20395;-85
2023/04/19 03:20:00;;;;;;;;;;;5.30;63.60;;;;;;4026371;29;19916;-87
2023/04/19 03:22:21;;;;;;;;;;;5.30;63.50;;;;;;4009156;29;19913;-85
2023/04/19 03:25:03;;;;;;;;;;;5.40;63.50;;;;;;4007901;29;19920;-85
2023/04/19 03:27:50;;;;;;;;;;;;;;;;;;;;;
2023/04/19 03:30:43;;;;;;;;;;;5.30;63.20;;;;;;4081883;29;19911;-84
2023/04/19 03:33:13;;;;;;;;;;;5.30;63.30;;;;;;4082615;29;19918;-84
2023/04/19 03:35:50;;;;;;;;;;;5.30;63.20;;;;;;4084074;29;19949;-86
2023/04/19 03:38:37;;;;;;;;;;;5.20;63.60;;;;;;4069338;29;19915;-85
2023/04/19 03:41:16;;;;;;;;;;;5.20;64.50;;;;;;4081521;29;20038;-84
2023/04/19 03:43:51;;;;;;;;;;;5.20;65.30;;;;;;4082616;29;19915;-85
2023/04/19 03:46:35;;;;;;;;;;;5.20;65.10;;;;;;4079638;29;19965;-86
2023/04/19 03:49:01;;;;;;;;;;;5.30;65.70;;;;;;4069467;29;19941;-85
2023/04/19 03:51:26;;;;;;;;;;;5.10;66.00;;;;;;4080113;29;19962;-87
2023/04/19 03:54:10;;;;;;;;;;;5.10;66.40;;;;;;4082321;29;19918;-86
2023/04/19 03:56:10;;;;;;;;;;;5.30;66.90;;;;;;4102716;28;19915;-89
2023/04/19 03:58:11;;;;;;;;;;;5.20;65.80;;;;;;4096594;28;20482;-86
2023/04/19 04:00:21;;;;;;;;;;;5.20;65.80;;;;;;4078465;29;20365;-85
2023/04/19 04:02:41;;;;;;;;;;;5.30;65.50;;;;;;4069209;29;19946;-86
2023/04/19 04:07:02;;;;;;;;;;;5.20;65.50;;;;;;4115988;28;19926;-87
2023/04/19 04:09:22;;;;;;;;;;;5.30;65.50;;;;;;4109069;28;19917;-88
2023/04/19 04:11:47;;;;;;;;;;;;;;;;;;;;;
2023/04/19 04:14:00;;;;;;;;;;;5.20;65.90;;;;;;4111715;28;19917;-85
2023/04/19 04:16:36;;;;;;;;;;;5.30;65.80;;;;;;4103537;28;19917;-85
2023/04/19 04:19:03;;;;;;;;;;;5.20;65.70;;;;;;4079235;28;19921;-87
2023/04/19 04:21:35;;;;;;;;;;;;;;;;;;;;;
2023/04/19 04:24:00;;;;;;;;;;;5.20;65.80;;;;;;4119367;28;19972;-85
2023/04/19 04:26:42;;;;;;;;;;;5.20;65.70;;;;;;4084596;29;20397;-86
2023/04/19 04:29:17;;;;;;;;;;;;;;;;;;;;;
2023/04/19 04:31:51;;;;;;;;;;;;;;;;;;;;;
2023/04/19 04:34:08;;;;;;;;;;;5.20;65.50;;;;;;4117688;28;20000;-86
2023/04/19 04:39:10;;;;;;;;;;;;;;;;;;;;;
2023/04/19 04:41:19;;;;;;;;;;;5.20;65.30;;;;;;4094618;28;20288;-86
2023/04/19 04:44:00;;;;;;;;;;;5.20;65.50;;;;;;4117808;28;19906;-86
2023/04/19 04:48:58;;;;;;;;;;;5.30;66.00;;;;;;4043589;29;20035;-86
2023/04/19 04:51:52;;;;;;;;;;;5.40;66.50;;;;;;4048739;29;20032;-85
2023/04/19 04:54:24;;;;;;;;;;;5.40;66.90;;;;;;4060597;29;19929;-88
2023/04/19 04:56:40;;;;;;;;;;;5.30;66.50;;;;;;4042155;29;19920;-87
2023/04/19 04:59:04;;;;;;;;;;;5.40;67.00;;;;;;4056087;29;20413;-85
2023/04/19 05:04:11;;;;;;;;;;;5.50;67.80;;;;;;4038096;29;19931;-86
2023/04/19 05:06:39;;;;;;;;;;;5.40;67.80;;;;;;4023881;29;20014;-86
2023/04/19 05:09:04;;;;;;;;;;;5.50;67.60;;;;;;4035455;29;19920;-86
2023/04/19 05:11:25;;;;;;;;;;;5.60;67.90;;;;;;4003354;29;20326;-85
2023/04/19 05:17:59;;;;;;;;;;;5.60;68.40;;;;;;2219626;23;19953;-85
2023/04/19 05:20:15;;;;;;;;;;;5.70;68.70;;;;;;4095882;28;19915;-85
2023/04/19 05:22:25;;;;;;;;;;;5.90;68.50;;;;;;4102567;28;19914;-84
2023/04/19 05:25:13;;;;;;;;;;;5.80;69.10;;;;;;4120321;28;19910;-85
2023/04/19 05:27:20;;;;;;;;;;;5.90;68.70;;;;;;4089251;29;19992;-85
2023/04/19 05:32:38;;;;;;;;;;;6.10;68.90;;;;;;4087031;29;19918;-84
2023/04/19 05:34:49;;;;;;;;;;;6.20;69.00;;;;;;4083131;29;19921;-84
2023/04/19 05:36:59;;;;;;;;;;;6.10;69.40;;;;;;4109099;28;20097;-85
2023/04/19 05:39:37;;;;;;;;;;;6.20;69.00;;;;;;4118544;28;19970;-87
2023/04/19 05:42:04;;;;;;;;;;;6.40;69.10;;;;;;4104305;28;19922;-86
2023/04/19 05:44:21;;;;;;;;;;;6.50;69.20;;;;;;4089916;29;19910;-85
2023/04/19 05:46:41;;;;;;;;;;;;;;;;;;;;;
2023/04/19 05:49:23;;;;;;;;;;;6.60;69.10;;;;;;4094341;28;19910;-88
2023/04/19 05:51:46;;;;;;;;;;;6.60;68.90;;;;;;4102179;28;19917;-85
2023/04/19 05:54:21;;;;;;;;;;;6.80;68.60;;;;;;4102578;28;19972;-86
2023/04/19 05:56:45;;;;;;;;;;;6.80;67.80;;;;;;4081332;28;19918;-87
2023/04/19 05:58:57;;;;;;;;;;;6.80;67.60;;;;;;4100124;29;19907;-86
2023/04/19 06:01:23;;;;;;;;;;;6.90;67.10;;;;;;4122818;28;19978;-86
2023/04/19 06:03:51;;;;;;;;;;;7.00;67.00;;;;;;4130146;28;19924;-85
2023/04/19 06:06:24;;;;;;;;;;;7.10;67.10;;;;;;4114996;28;19910;-85
2023/04/19 06:08:47;;;;;;;;;;;7.10;66.90;;;;;;4103350;28;19907;-85
2023/04/19 06:11:25;;;;;;;;;;;7.30;66.70;;;;;;4095759;28;20025;-86
2023/04/19 06:14:04;;;;;;;;;;;;;;;;;;;;;
2023/04/19 06:16:11;;;;;;;;;;;7.40;66.10;;;;;;4095230;28;19935;-85
2023/04/19 06:18:26;;;;;;;;;;;7.50;65.60;;;;;;4114582;28;19918;-85
2023/04/19 06:20:57;;;;;;;;;;;7.40;65.50;;;;;;4114563;28;20281;-85
2023/04/19 06:23:13;;;;;;;;;;;7.60;65.10;;;;;;4081229;29;19906;-84
2023/04/19 06:25:25;;;;;;;;;;;7.60;64.50;;;;;;4089014;29;19910;-85
2023/04/19 06:27:26;;;;;;;;;;;7.70;64.10;;;;;;4083627;29;20300;-85
2023/04/19 06:29:40;;;;;;;;;;;;;;;;;;;;;
2023/04/19 06:31:59;;;;;;;;;;;7.80;63.90;;;;;;4095589;28;19914;-87
2023/04/19 06:34:20;;;;;;;;;;;7.90;63.40;;;;;;4118214;28;19917;-85
2023/04/19 06:36:52;;;;;;;;;;;7.90;62.50;;;;;;4118237;28;19921;-85
2023/04/19 06:39:34;;;;;;;;;;;8.00;61.90;;;;;;4102972;28;19906;-85
2023/04/19 06:42:06;;;;;;;;;;;8.10;61.30;;;;;;4120497;28;20014;-85
2023/04/19 06:44:28;;;;;;;;;;;8.00;60.50;;;;;;4115179;28;19957;-86
2023/04/19 06:46:52;;;;;;;;;;;8.20;60.50;;;;;;4113312;28;19914;-86
2023/04/19 06:49:34;;;;;;;;;;;8.30;60.10;;;;;;4116363;28;19960;-87
2023/04/19 06:51:43;;;;;;;;;;;8.30;59.70;;;;;;4102656;28;19915;-85
2023/04/19 06:54:30;;;;;;;;;;;8.40;59.60;;;;;;4117574;28;19918;-86
2023/04/19 06:56:50;;;;;;;;;;;8.50;59.60;;;;;;4116728;28;19910;-85
2023/04/19 06:59:30;;;;;;;;;;;8.60;59.40;;;;;;4117993;28;19965;-87
2023/04/19 07:02:09;;;;;;;;;;;8.60;58.50;;;;;;4100762;28;20006;-85
2023/04/19 07:07:54;;;;;;;;;;;;;;;;;;;;;
2023/04/19 07:10:21;;;;;;;;;;;8.90;58.30;;;;;;4117830;28;19916;-87
2023/04/19 07:12:53;;;;;;;;;;;8.90;57.30;;;;;;4100005;28;19911;-85
2023/04/19 07:15:35;;;;;;;;;;;9.00;57.60;;;;;;4102411;28;19922;-85
2023/04/19 07:18:05;;;;;;;;;;;9.10;57.90;;;;;;4100323;28;20502;-87
2023/04/19 07:20:18;;;;;;;;;;;9.10;56.70;;;;;;4098563;28;19915;-89
2023/04/19 07:22:59;;;;;;;;;;;9.10;56.40;;;;;;4079543;29;19915;-85
2023/04/19 07:25:09;;;;;;;;;;;9.30;55.90;;;;;;4134080;23;19933;-85
2023/04/19 07:29:49;;;;;;;;;;;9.50;55.20;;;;;;4130858;28;19918;-85
2023/04/19 07:32:05;;;;;;;;;;;;;;;;;;;;;
2023/04/19 07:34:17;;;;;;;;;;;9.50;54.60;;;;;;4094522;28;19920;-87
2023/04/19 07:36:44;;;;;;;;;;;9.60;54.50;;;;;;4114056;28;19910;-85
2023/04/19 07:39:02;;;;;;;;;;;9.70;53.20;;;;;;4095775;28;20044;-85
2023/04/19 07:41:19;;;;;;;;;;;;;;;;;;;;;
2023/04/19 07:43:46;;;;;;;;;;;9.80;53.30;;;;;;4096865;28;19906;-85
2023/04/19 07:46:18;;;;;;;;;;;9.90;52.40;;;;;;4103561;28;19906;-86
2023/04/19 07:48:51;;;;;;;;;;;9.90;51.20;;;;;;4084368;29;19930;-87
2023/04/19 07:51:25;;;;;;;;;;;9.90;51.30;;;;;;4113411;28;19914;-85
2023/04/19 07:56:14;;;;;;;;;;;10.00;50.30;;;;;;4102675;28;20376;-85
2023/04/19 07:58:30;;;;;;;;;;;10.10;50.20;;;;;;4097237;28;19931;-85
2023/04/19 08:00:51;;;;;;;;;;;10.20;49.90;;;;;;4084582;28;19990;-85
2023/04/19 08:03:11;;;;;;;;;;;10.20;50.20;;;;;;4081317;29;19974;-85
2023/04/19 08:05:17;;;;;;;;;;;10.30;49.80;;;;;;4074354;29;19943;-87
2023/04/19 08:07:34;;;;;;;;;;;10.40;49.40;;;;;;4090175;29;19955;-86
2023/04/19 08:09:37;;;;;;;;;;;10.50;49.10;;;;;;4067233;29;19907;-85
2023/04/19 08:11:38;;;;;;;;;;;10.40;47.70;;;;;;4081282;29;19918;-85
2023/04/19 08:13:43;;;;;;;;;;;10.50;46.90;;;;;;4101430;28;19914;-89
2023/04/19 08:15:44;;;;;;;;;;;10.40;46.50;;;;;;4078505;29;19917;-86
2023/04/19 08:20:18;;;;;;;;;;;10.50;46.80;;;;;;4078573;29;19921;-85
2023/04/19 08:22:57;;;;;;;;;;;10.60;46.20;;;;;;4063912;29;19907;-86
2023/04/19 08:25:10;;;;;;;;;;;10.70;47.00;;;;;;4076848;29;20297;-86
2023/04/19 08:27:46;;;;;;;;;;;10.60;46.80;;;;;;4081321;29;19917;-87
2023/04/19 08:30:12;;;;;;;;;;;10.70;46.70;;;;;;4082597;29;20436;-85
2023/04/19 08:32:26;;;;;;;;;;;10.70;47.20;;;;;;4082999;28;19914;-86
2023/04/19 08:34:27;;;;;;;;;;;10.90;48.00;;;;;;4094897;29;20102;-85
2023/04/19 08:36:41;;;;;;;;;;;10.80;48.00;;;;;;4114436;28;19906;-86
2023/04/19 08:38:55;;;;;;;;;;;10.90;47.90;;;;;;4087269;29;19910;-88
2023/04/19 08:41:27;;;;;;;;;;;10.90;47.30;;;;;;4062537;28;19906;-88
2023/04/19 08:43:53;;;;;;;;;;;11.00;48.40;;;;;;4117461;28;19905;-88
2023/04/19 08:46:22;;;;;;;;;;;10.90;47.00;;;;;;4109653;28;19923;-89
2023/04/19 08:48:38;;;;;;;;;;;11.10;47.50;;;;;;4073981;29;19923;-88
2023/04/19 08:50:42;;;;;;;;;;;11.10;47.30;;;;;;4084720;29;19903;-89
2023/04/19 08:53:12;;;;;;;;;;;11.20;47.40;;;;;;4068910;29;19919;-90
2023/04/19 08:55:18;;;;;;;;;;;11.20;46.80;;;;;;4058804;29;19985;-86
2023/04/19 08:57:32;;;;;;;;;;;11.30;45.90;;;;;;4069761;29;20015;-85
2023/04/19 08:59:56;;;;;;;;;;;11.30;45.30;;;;;;4067762;29;19998;-86
2023/04/19 09:02:14;;;;;;;;;;;11.30;45.70;;;;;;4053394;29;19914;-86
2023/04/19 09:04:48;;;;;;;;;;;11.40;46.10;;;;;;4085635;29;19986;-85
2023/04/19 09:07:24;;;;;;;;;;;11.40;45.20;;;;;;4080861;29;19970;-86
2023/04/19 09:09:45;;;;;;;;;;;11.50;45.10;;;;;;4086247;29;19910;-85
2023/04/19 09:12:16;;;;;;;;;;;11.50;44.30;;;;;;4081349;29;19915;-86
2023/04/19 09:17:19;;;;;;;;;;;11.50;44.00;;;;;;4022380;29;19959;-84
2023/04/19 09:19:19;;;;;;;;;;;11.60;43.60;;;;;;4005578;29;20748;-85
2023/04/19 09:21:30;;;;;;;;;;;11.60;44.20;;;;;;4004030;29;20378;-89
2023/04/19 09:23:30;;;;;;;;;;;11.60;44.50;;;;;;4021100;29;19936;-87
2023/04/19 09:25:31;;;;;;;;;;;11.60;43.80;;;;;;4046896;29;19914;-86
2023/04/19 09:27:32;;;;;;;;;;;11.60;42.40;;;;;;4065529;29;20149;-86
2023/04/19 09:29:33;;;;;;;;;;;11.70;43.40;;;;;;4030986;29;19967;-86
2023/04/19 09:31:35;;;;;;;;;;;11.70;43.70;;;;;;4067398;29;19907;-86
2023/04/19 09:33:39;;;;;;;;;;;11.80;42.90;;;;;;4049671;29;20051;-85
2023/04/19 09:35:41;;;;;;;;;;;11.70;41.60;;;;;;4068585;29;19951;-84
2023/04/19 09:37:41;;;;;;;;;;;11.80;41.70;;;;;;4041678;29;19912;-85
2023/04/19 09:39:51;;;;;;;;;;;11.90;42.00;;;;;;4040059;29;20374;-85
2023/04/19 09:42:01;;;;;;;;;;;11.90;42.70;;;;;;4045102;29;19914;-85
2023/04/19 09:44:11;;;;;;;;;;;11.90;41.10;;;;;;4069027;29;19915;-85
2023/04/19 09:46:31;;;;;;;;;;;12.00;41.30;;;;;;4053438;29;19915;-88
2023/04/19 09:48:40;;;;;;;;;;;12.00;41.40;;;;;;4065002;29;19959;-86
2023/04/19 09:50:54;;;;;;;;;;;12.10;41.10;;;;;;4049168;29;19911;-85
2023/04/19 09:53:02;;;;;;;;;;;12.10;40.90;;;;;;4065341;29;20002;-85
2023/04/19 09:55:05;;;;;;;;;;;12.10;40.20;;;;;;4106396;28;19949;-85
2023/04/19 09:57:07;;;;;;;;;;;12.20;39.30;;;;;;4115663;28;20273;-86
2023/04/19 09:59:21;;;;;;;;;;;12.30;39.90;;;;;;4113734;28;19913;-86
2023/04/19 10:01:51;;;;;;;;;;;12.20;39.80;;;;;;4102054;28;19941;-88
2023/04/19 10:04:01;;;;;;;;;;;12.30;40.00;;;;;;4137061;28;19910;-85
2023/04/19 10:06:37;;;;;;;;;;;12.40;40.50;;;;;;4070117;29;19906;-86
2023/04/19 10:08:49;;;;;;;;;;;12.50;40.60;;;;;;4066683;28;19915;-84
2023/04/19 10:11:25;;;;;;;;;;;12.50;40.00;;;;;;4121500;28;19996;-88
2023/04/19 10:16:39;;;;;;;;;;;12.50;37.60;;;;;;4119675;28;19906;-89
2023/04/19 10:18:52;;;;;;;;;;;12.40;38.50;;;;;;4120907;28;19910;-86
2023/04/19 10:21:41;;;;;;;;;;;12.40;38.40;;;;;;4124027;28;19905;-86
2023/04/19 10:24:05;;;;;;;;;;;12.30;37.70;;;;;;4126184;28;19913;-85
2023/04/19 10:26:26;;;;;;;;;;;12.40;39.80;;;;;;4150024;28;20300;-84
2023/04/19 10:29:02;;;;;;;;;;;12.40;39.20;;;;;;4132766;28;19921;-87
2023/04/19 10:31:51;;;;;;;;;;;12.50;40.90;;;;;;4148948;28;19932;-87
2023/04/19 10:34:35;;;;;;;;;;;12.50;37.10;;;;;;4122409;28;19968;-88
2023/04/19 10:36:56;;;;;;;;;;;12.50;39.10;;;;;;4155082;28;19909;-87
2023/04/19 10:39:41;;;;;;;;;;;12.40;38.10;;;;;;4147243;28;19935;-86
2023/04/19 10:42:26;;;;;;;;;;;12.50;37.90;;;;;;4135913;28;20489;-87
2023/04/19 10:45:12;;;;;;;;;;;12.60;39.40;;;;;;4151720;28;20379;-86
2023/04/19 10:47:52;;;;;;;;;;;12.50;38.90;;;;;;4134876;28;19913;-86
2023/04/19 10:50:26;;;;;;;;;;;12.60;38.40;;;;;;4136966;28;20431;-86
2023/04/19 10:52:29;;;;;;;;;;;12.60;37.10;;;;;;4147168;28;20364;-85
2023/04/19 10:54:37;;;;;;;;;;;12.70;37.80;;;;;;4134044;28;19913;-86
2023/04/19 10:57:04;;;;;;;;;;;12.60;37.70;;;;;;4148656;28;19906;-85
2023/04/19 11:01:43;;;;;;;;;;;12.60;36.30;;;;;;4131413;28;19976;-85
2023/04/19 11:03:43;;;;;;;;;;;12.70;36.60;;;;;;4128268;28;19910;-87
2023/04/19 11:06:07;;;;;;;;;;;12.80;37.00;;;;;;4118097;28;19910;-86
2023/04/19 11:08:28;;;;;;;;;;;12.70;35.90;;;;;;4131776;28;20000;-86
2023/04/19 11:10:31;;;;;;;;;;;12.70;35.80;;;;;;4145739;28;19916;-86
2023/04/19 11:12:41;;;;;;;;;;;12.70;33.10;;;;;;4144980;28;19945;-86
2023/04/19 11:14:43;;;;;;;;;;;12.70;33.90;;;;;;4137620;28;19951;-87
2023/04/19 11:16:46;;;;;;;;;;;12.80;34.00;;;;;;4126084;28;20012;-89
2023/04/19 11:18:49;;;;;;;;;;;12.70;33.70;;;;;;4138298;28;20617;-88
2023/04/19 11:21:02;;;;;;;;;;;;;;;;;;;;;
2023/04/19 11:23:14;;;;;;;;;;;12.60;35.40;;;;;;4146729;28;20598;-86
2023/04/19 11:25:30;;;;;;;;;;;12.60;37.20;;;;;;4129924;28;19913;-87
2023/04/19 11:30:21;;;;;;;;;;;12.70;35.70;;;;;;4079753;29;19915;-88
2023/04/19 11:32:54;;;;;;;;;;;12.70;34.60;;;;;;4063464;29;19983;-86
2023/04/19 11:35:10;;;;;;;;;;;12.80;34.80;;;;;;4052495;29;19995;-86
2023/04/19 11:37:29;;;;;;;;;;;12.80;35.00;;;;;;4064514;29;19982;-86
2023/04/19 11:40:01;;;;;;;;;;;12.80;35.50;;;;;;4004466;29;19912;-87
2023/04/19 11:42:37;;;;;;;;;;;;;;;;;;;;;
2023/04/19 11:47:46;;;;;;;;;;;12.80;33.20;;;;;;4051899;29;19999;-86
2023/04/19 11:50:41;;;;;;;;;;;12.80;34.10;;;;;;4034810;29;19935;-88
2023/04/19 11:53:09;;;;;;;;;;;12.80;35.00;;;;;;4033898;29;19917;-87
2023/04/19 11:55:32;;;;;;;;;;;12.90;36.70;;;;;;4051939;29;19920;-88
2023/04/19 11:57:52;;;;;;;;;;;12.70;36.40;;;;;;4055660;29;19916;-88
2023/04/19 12:00:23;;;;;;;;;;;12.70;36.50;;;;;;4038691;29;19951;-88
2023/04/19 12:02:46;;;;;;;;;;;12.80;38.40;;;;;;4041093;29;19915;-86
2023/04/19 12:05:16;;;;;;;;;;;12.80;38.40;;;;;;4046178;29;19979;-89
2023/04/19 12:07:17;;;;;;;;;;;12.80;37.20;;;;;;4076659;28;19906;-87
2023/04/19 12:09:40;;;;;;;;;;;12.90;36.50;;;;;;4093708;29;20518;-86
2023/04/19 12:11:42;;;;;;;;;;;13.00;37.10;;;;;;4127762;28;19915;-86
2023/04/19 12:13:44;;;;;;;;;;;12.80;36.50;;;;;;4109009;28;19914;-88
2023/04/19 12:16:27;;;;;;;;;;;12.80;36.30;;;;;;4076250;29;19918;-86
2023/04/19 12:18:44;;;;;;;;;;;12.90;36.20;;;;;;4061282;29;19907;-86
2023/04/19 12:21:08;;;;;;;;;;;12.90;35.90;;;;;;4066123;29;20388;-87
2023/04/19 12:23:14;;;;;;;;;;;12.90;38.00;;;;;;4051369;29;19912;-88
2023/04/19 12:25:26;;;;;;;;;;;12.90;36.70;;;;;;4069011;29;19915;-86
2023/04/19 12:27:35;;;;;;;;;;;12.80;37.40;;;;;;4110191;28;19933;-86
2023/04/19 12:29:47;;;;;;;;;;;12.70;36.50;;;;;;4117487;28;19913;-86
2023/04/19 12:32:21;;;;;;;;;;;12.70;38.00;;;;;;4144205;28;20418;-87
2023/04/19 12:34:32;;;;;;;;;;;12.70;37.70;;;;;;4114198;28;19925;-86
2023/04/19 12:37:00;;;;;;;;;;;12.60;37.10;;;;;;4125390;28;20420;-85
2023/04/19 12:39:41;;;;;;;;;;;12.60;39.10;;;;;;4145522;28;19909;-85
2023/04/19 12:42:01;;;;;;;;;;;12.70;39.60;;;;;;4091888;29;19907;-86
2023/04/19 12:44:25;;;;;;;;;;;12.70;38.00;;;;;;4082468;29;19911;-87
2023/04/19 12:47:01;;;;;;;;;;;;;;;;;;;;;
2023/04/19 12:49:34;;;;;;;;;;;12.70;38.40;;;;;;4081528;29;19920;-85
2023/04/19 12:52:10;;;;;;;;;;;12.70;39.40;;;;;;4089366;28;20573;-86
2023/04/19 12:54:34;;;;;;;;;;;12.70;38.80;;;;;;4052939;29;19939;-85
2023/04/19 12:56:56;;;;;;;;;;;12.60;37.80;;;;;;4089398;29;19920;-87
2023/04/19 12:59:17;;;;;;;;;;;12.60;39.40;;;;;;4080526;29;19965;-86
2023/04/19 13:01:39;;;;;;;;;;;12.70;38.40;;;;;;4088750;29;19911;-87
2023/04/19 13:03:40;;;;;;;;;;;12.70;38.40;;;;;;4073416;29;19941;-85
2023/04/19 13:05:44;;;;;;;;;;;12.70;37.80;;;;;;4090156;29;19911;-86
2023/04/19 13:07:44;;;;;;;;;;;12.70;40.00;;;;;;4090141;29;19918;-86
2023/04/19 13:10:01;;;;;;;;;;;12.90;39.80;;;;;;4070815;29;19907;-87
2023/04/19 13:12:04;;;;;;;;;;;12.80;40.70;;;;;;4074873;29;19919;-86
2023/04/19 13:16:46;;;;;;;;;;;12.80;38.60;;;;;;4028623;29;19928;-86
2023/04/19 13:18:56;;;;;;;;;;;12.90;39.60;;;;;;4039129;29;19910;-89
2023/04/19 13:21:22;;;;;;;;;;;12.90;37.80;;;;;;4072309;29;20132;-85
2023/04/19 13:23:46;;;;;;;;;;;12.90;37.80;;;;;;4089506;29;20001;-85
2023/04/19 13:25:54;;;;;;;;;;;13.00;35.90;;;;;;4074219;29;19926;-86
2023/04/19 13:28:12;;;;;;;;;;;12.70;36.20;;;;;;4066405;29;19911;-87
2023/04/19 13:30:40;;;;;;;;;;;12.80;36.20;;;;;;4074369;29;19914;-86
2023/04/19 13:33:14;;;;;;;;;;;12.70;35.50;;;;;;4073275;29;19939;-85
2023/04/19 13:35:50;;;;;;;;;;;;;;;;;;;;;
2023/04/19 13:38:35;;;;;;;;;;;12.60;34.00;;;;;;4085256;29;19917;-85
2023/04/19 13:41:03;;;;;;;;;;;12.50;33.70;;;;;;4086748;29;20427;-86
2023/04/19 13:43:24;;;;;;;;;;;12.70;33.80;;;;;;4091180;29;19906;-86
2023/04/19 13:45:45;;;;;;;;;;;12.70;35.50;;;;;;4077651;29;20504;-86
2023/04/19 13:48:05;;;;;;;;;;;12.80;34.90;;;;;;4087568;29;20397;-87
2023/04/19 13:50:32;;;;;;;;;;;12.80;35.20;;;;;;4090376;29;19918;-85
2023/04/19 13:52:58;;;;;;;;;;;12.60;33.20;;;;;;4109547;28;19917;-87
2023/04/19 13:55:10;;;;;;;;;;;12.60;36.00;;;;;;4136005;28;20545;-86
2023/04/19 13:57:11;;;;;;;;;;;12.50;33.20;;;;;;4118812;28;20315;-87
2023/04/19 13:59:24;;;;;;;;;;;;;;;;;;;;;
2023/04/19 14:01:39;;;;;;;;;;;12.50;32.40;;;;;;4135930;28;19910;-87
2023/04/19 14:03:48;;;;;;;;;;;12.40;34.40;;;;;;4129962;28;20414;-86
2023/04/19 14:05:48;;;;;;;;;;;12.60;33.80;;;;;;4149388;28;20665;-86
2023/04/19 14:08:10;;;;;;;;;;;12.50;33.70;;;;;;4135289;28;19936;-86
2023/04/19 14:10:15;;;;;;;;;;;12.50;32.70;;;;;;4118325;28;19916;-85
2023/04/19 14:12:36;;;;;;;;;;;12.50;34.30;;;;;;4138585;28;19957;-88
2023/04/19 14:14:56;;;;;;;;;;;12.60;33.00;;;;;;4152558;28;19925;-87
2023/04/19 14:17:34;;;;;;;;;;;12.50;32.10;;;;;;4151305;28;19952;-86
2023/04/19 14:20:09;;;;;;;;;;;12.60;32.40;;;;;;4151061;28;19909;-85
2023/04/19 14:22:39;;;;;;;;;;;12.60;32.00;;;;;;4154102;28;19981;-86
2023/04/19 14:27:57;;;;;;;;;;;12.50;31.90;;;;;;4128873;28;20004;-85
2023/04/19 14:30:05;;;;;;;;;;;12.40;30.70;;;;;;4142608;28;19969;-88
2023/04/19 14:32:26;;;;;;;;;;;12.50;32.90;;;;;;4124242;28;20007;-85
2023/04/19 14:34:47;;;;;;;;;;;12.50;33.40;;;;;;4130769;28;20340;-84
2023/04/19 14:37:16;;;;;;;;;;;12.60;32.50;;;;;;4149871;28;19979;-86
2023/04/19 14:39:40;;;;;;;;;;;12.60;32.60;;;;;;4145205;28;19928;-86
2023/04/19 14:42:03;;;;;;;;;;;12.60;32.50;;;;;;4151679;28;19946;-85
2023/04/19 14:44:37;;;;;;;;;;;12.50;33.30;;;;;;4147971;28;19973;-87
2023/04/19 14:46:57;;;;;;;;;;;12.60;32.30;;;;;;4148358;28;19910;-86
2023/04/19 14:49:28;;;;;;;;;;;12.50;32.80;;;;;;4152707;28;19909;-86
2023/04/19 14:51:57;;;;;;;;;;;12.40;33.00;;;;;;4147203;28;19917;-86
2023/04/19 14:54:21;;;;;;;;;;;12.50;32.30;;;;;;4130887;28;19999;-86
2023/04/19 14:56:57;;;;;;;;;;;12.40;32.30;;;;;;4149232;28;19929;-86
2023/04/19 14:59:30;;;;;;;;;;;12.40;31.60;;;;;;4148731;28;19906;-86
2023/04/19 15:01:44;;;;;;;;;;;12.40;32.60;;;;;;4148666;28;19999;-86
2023/04/19 15:04:22;;;;;;;;;;;12.40;32.50;;;;;;4139224;28;19977;-85
2023/04/19 15:06:46;;;;;;;;;;;12.20;33.20;;;;;;4117873;28;20377;-85
2023/04/19 15:08:57;;;;;;;;;;;12.20;32.50;;;;;;4129449;28;19921;-87
2023/04/19 15:11:18;;;;;;;;;;;12.10;33.20;;;;;;4120653;28;19913;-87
2023/04/19 15:17:32;;;;;;;;;;;12.20;34.70;;;;;;2333455;26;20287;-85
2023/04/19 15:19:44;;;;;;;;;;;12.10;35.00;;;;;;4135667;28;19941;-86